Time;durP1;ratioP1;P1;durP2;ratioP2;P2;SDS_P1;SDS_P2;PMS_P1;PMS_P2;Temp;Humidity;BMP_temperature;BMP_pressure;BME280_temperature;BME280_humidity;BME280_pressure;Samples;Min_cycle;Max_cycle;Signal;HPM_P1;HPM_P2
2023/12/20 00:00:01;;;;;;;4.27;2.83;;;;;;;;;;5063478;28;20179;-76
2023/12/20 00:02:27;;;;;;;2.90;2.37;;;;;;;;;;5058936;28;20210;-77
2023/12/20 00:04:53;;;;;;;2.77;2.30;;;;;;;;;;5078350;28;20217;-75
2023/12/20 00:07:19;;;;;;;3.20;2.60;;;;;;;;;;5057051;28;20290;-76
2023/12/20 00:09:45;;;;;;;3.27;2.43;;;;;;;;;;5079428;28;20206;-77
2023/12/20 00:12:11;;;;;;;3.70;2.60;;;;;;;;;;5076636;28;20275;-77
2023/12/20 00:14:37;;;;;;;3.00;2.10;;;;;;;;;;5074678;28;20199;-78
2023/12/20 00:17:03;;;;;;;3.03;2.10;;;;;;;;;;5076361;28;20222;-76
2023/12/20 00:19:32;;;;;;;3.13;2.50;;;;;;;;;;5075140;28;20279;-76
2023/12/20 00:21:59;;;;;;;2.37;2.17;;;;;;;;;;5070259;28;20207;-76
2023/12/20 00:24:25;;;;;;;4.00;2.47;;;;;;;;;;5065306;28;20224;-77
2023/12/20 00:26:51;;;;;;;2.93;2.23;;;;;;;;;;5076983;28;20214;-76
2023/12/20 00:29:18;;;;;;;3.33;2.43;;;;;;;;;;5082402;28;20215;-76
2023/12/20 00:31:44;;;;;;;2.90;2.00;;;;;;;;;;5070654;28;20227;-77
2023/12/20 00:34:10;;;;;;;3.07;2.43;;;;;;;;;;5056558;28;20210;-77
2023/12/20 00:36:36;;;;;;;3.03;2.27;;;;;;;;;;5078786;28;20211;-79
2023/12/20 00:39:02;;;;;;;3.03;2.20;;;;;;;;;;5077202;28;20179;-77
2023/12/20 00:41:28;;;;;;;3.30;2.43;;;;;;;;;;5073078;28;20265;-75
2023/12/20 00:43:54;;;;;;;3.97;2.40;;;;;;;;;;5072787;28;20299;-76
2023/12/20 00:46:20;;;;;;;3.07;2.47;;;;;;;;;;5079580;28;20264;-77
2023/12/20 00:48:46;;;;;;;2.33;2.03;;;;;;;;;;5080773;28;20222;-78
2023/12/20 00:51:12;;;;;;;2.50;2.17;;;;;;;;;;5083237;28;20270;-77
2023/12/20 00:53:38;;;;;;;2.97;2.07;;;;;;;;;;5077258;28;20175;-76
2023/12/20 00:56:04;;;;;;;3.13;2.30;;;;;;;;;;5074569;28;20207;-77
2023/12/20 00:58:30;;;;;;;3.07;2.47;;;;;;;;;;5078478;28;20261;-77
2023/12/20 01:00:58;;;;;;;3.93;2.20;;;;;;;;;;5087662;28;20215;-77
2023/12/20 01:03:24;;;;;;;2.87;2.17;;;;;;;;;;5075246;28;20582;-77
2023/12/20 01:05:50;;;;;;;3.23;2.33;;;;;;;;;;5084513;28;20183;-78
2023/12/20 01:08:16;;;;;;;4.10;2.83;;;;;;;;;;5082896;28;20237;-78
2023/12/20 01:10:42;;;;;;;2.90;2.30;;;;;;;;;;5078057;28;20211;-76
2023/12/20 01:13:08;;;;;;;3.03;2.07;;;;;;;;;;5074041;28;20237;-76
2023/12/20 01:15:34;;;;;;;3.47;2.60;;;;;;;;;;5058198;28;20298;-74
2023/12/20 01:18:01;;;;;;;3.40;2.43;;;;;;;;;;5078656;28;20195;-77
2023/12/20 01:20:27;;;;;;;3.50;2.50;;;;;;;;;;5077790;28;20197;-75
2023/12/20 01:22:53;;;;;;;3.93;2.63;;;;;;;;;;5074262;28;20211;-74
2023/12/20 01:25:19;;;;;;;3.53;2.70;;;;;;;;;;5078844;28;20473;-76
2023/12/20 01:27:45;;;;;;;3.03;2.50;;;;;;;;;;5069507;28;20231;-76
2023/12/20 01:30:11;;;;;;;3.00;2.37;;;;;;;;;;5078949;28;20271;-76
2023/12/20 01:32:37;;;;;;;2.40;2.00;;;;;;;;;;5077522;28;20216;-77
2023/12/20 01:35:03;;;;;;;3.53;2.73;;;;;;;;;;5057319;28;20232;-74
2023/12/20 01:37:29;;;;;;;2.97;2.60;;;;;;;;;;5055840;28;20218;-75
2023/12/20 01:40:00;;;;;;;3.00;2.33;;;;;;;;;;5058979;28;20231;-75
2023/12/20 01:42:28;;;;;;;3.17;2.30;;;;;;;;;;5061884;28;20214;-75
2023/12/20 01:44:54;;;;;;;3.37;2.33;;;;;;;;;;5063820;28;20206;-73
2023/12/20 01:47:22;;;;;;;3.80;2.80;;;;;;;;;;5053809;28;20208;-75
2023/12/20 01:49:48;;;;;;;2.90;2.17;;;;;;;;;;5057415;28;20749;-75
2023/12/20 01:52:14;;;;;;;3.37;2.57;;;;;;;;;;5078656;28;20727;-75
2023/12/20 01:54:41;;;;;;;4.03;2.50;;;;;;;;;;5077580;28;20213;-75
2023/12/20 01:57:07;;;;;;;2.63;2.10;;;;;;;;;;5076549;28;20771;-74
2023/12/20 01:59:33;;;;;;;3.30;2.20;;;;;;;;;;5080259;28;20190;-73
2023/12/20 02:02:00;;;;;;;2.87;2.57;;;;;;;;;;5076264;28;20238;-76
2023/12/20 02:04:26;;;;;;;2.70;2.17;;;;;;;;;;5077134;28;20765;-76
2023/12/20 02:06:53;;;;;;;3.30;2.37;;;;;;;;;;5060676;28;20591;-75
2023/12/20 02:09:19;;;;;;;2.97;2.27;;;;;;;;;;5062055;28;20210;-76
2023/12/20 02:11:45;;;;;;;3.20;2.13;;;;;;;;;;5084824;28;20210;-76
2023/12/20 02:14:11;;;;;;;2.53;2.13;;;;;;;;;;5080567;28;20197;-76
2023/12/20 02:16:37;;;;;;;2.47;2.00;;;;;;;;;;5072812;28;20305;-75
2023/12/20 02:19:04;;;;;;;2.73;1.90;;;;;;;;;;5077240;28;20453;-75
2023/12/20 02:21:34;;;;;;;2.97;2.03;;;;;;;;;;5071139;28;20260;-76
2023/12/20 02:24:00;;;;;;;2.13;1.60;;;;;;;;;;5077544;28;20216;-76
2023/12/20 02:26:27;;;;;;;2.63;1.70;;;;;;;;;;5082420;28;20204;-74
2023/12/20 02:28:53;;;;;;;2.37;1.70;;;;;;;;;;5062555;28;20214;-75
2023/12/20 02:31:22;;;;;;;2.40;1.90;;;;;;;;;;5081369;28;20222;-76
2023/12/20 02:33:48;;;;;;;2.37;2.17;;;;;;;;;;5060914;28;20203;-76
2023/12/20 02:36:14;;;;;;;2.70;2.03;;;;;;;;;;5078954;28;20593;-74
2023/12/20 02:38:40;;;;;;;3.73;2.13;;;;;;;;;;5075701;28;20306;-74
2023/12/20 02:41:07;;;;;;;3.50;2.73;;;;;;;;;;5060841;28;20255;-76
2023/12/20 02:43:34;;;;;;;4.53;2.93;;;;;;;;;;5078708;28;20207;-73
2023/12/20 02:46:00;;;;;;;4.33;2.60;;;;;;;;;;5062749;28;20229;-74
2023/12/20 02:48:26;;;;;;;4.00;2.83;;;;;;;;;;5081534;28;20250;-75
2023/12/20 02:50:53;;;;;;;4.00;2.87;;;;;;;;;;5075325;28;20199;-74
2023/12/20 02:53:19;;;;;;;3.97;2.93;;;;;;;;;;5074135;28;20266;-76
2023/12/20 02:55:45;;;;;;;3.87;2.90;;;;;;;;;;5072701;28;20237;-75
2023/12/20 02:58:17;;;;;;;4.57;3.23;;;;;;;;;;5042425;28;20206;-76
2023/12/20 03:00:44;;;;;;;4.13;3.10;;;;;;;;;;5045012;28;20212;-75
2023/12/20 03:03:10;;;;;;;5.10;3.00;;;;;;;;;;5062893;28;20211;-76
2023/12/20 03:05:36;;;;;;;4.43;2.80;;;;;;;;;;5068587;28;20171;-76
2023/12/20 03:08:02;;;;;;;3.60;2.47;;;;;;;;;;5086824;28;20215;-76
2023/12/20 03:10:28;;;;;;;5.73;2.70;;;;;;;;;;5092163;28;20233;-77
2023/12/20 03:12:54;;;;;;;7.53;3.07;;;;;;;;;;5082790;28;20223;-75
2023/12/20 03:15:20;;;;;;;4.67;2.93;;;;;;;;;;5077806;28;20229;-75
2023/12/20 03:17:46;;;;;;;4.03;2.73;;;;;;;;;;5083075;28;20195;-76
2023/12/20 03:20:12;;;;;;;5.03;3.00;;;;;;;;;;5086024;28;20175;-75
2023/12/20 03:22:38;;;;;;;3.60;2.77;;;;;;;;;;5086142;28;20237;-76
2023/12/20 03:25:04;;;;;;;4.13;2.23;;;;;;;;;;5078507;28;20241;-75
2023/12/20 03:27:30;;;;;;;4.50;2.10;;;;;;;;;;5064478;28;20258;-76
2023/12/20 03:29:57;;;;;;;6.63;2.73;;;;;;;;;;5043739;28;20195;-77
2023/12/20 03:32:23;;;;;;;5.17;2.13;;;;;;;;;;5079434;28;20205;-75
2023/12/20 03:34:49;;;;;;;5.10;2.23;;;;;;;;;;5075808;28;20202;-76
2023/12/20 03:37:15;;;;;;;3.17;1.73;;;;;;;;;;5080929;28;20214;-77
2023/12/20 03:39:41;;;;;;;5.80;2.20;;;;;;;;;;5067518;28;20203;-76
2023/12/20 03:42:07;;;;;;;4.97;2.23;;;;;;;;;;5075411;28;20241;-77
2023/12/20 03:44:34;;;;;;;3.13;2.13;;;;;;;;;;5082751;28;20527;-73
2023/12/20 03:47:00;;;;;;;7.40;2.00;;;;;;;;;;5058554;28;20204;-75
2023/12/20 03:49:28;;;;;;;1.97;1.30;;;;;;;;;;5060374;28;20211;-75
2023/12/20 03:51:59;;;;;;;2.63;1.60;;;;;;;;;;5060191;28;20246;-75
2023/12/20 03:54:25;;;;;;;4.37;1.40;;;;;;;;;;5060104;28;20228;-76
2023/12/20 03:56:51;;;;;;;2.87;1.77;;;;;;;;;;5062358;28;20209;-76
2023/12/20 03:59:18;;;;;;;3.50;1.30;;;;;;;;;;5066858;28;20187;-77
2023/12/20 04:01:45;;;;;;;5.07;1.50;;;;;;;;;;5074568;28;20210;-76
2023/12/20 04:04:11;;;;;;;1.43;0.83;;;;;;;;;;5079269;28;20210;-77
2023/12/20 04:06:39;;;;;;;4.10;1.40;;;;;;;;;;5067132;28;20229;-76
2023/12/20 04:09:05;;;;;;;12.00;2.37;;;;;;;;;;5056119;28;20211;-75
2023/12/20 04:11:32;;;;;;;4.73;1.40;;;;;;;;;;5082742;28;20211;-76
2023/12/20 04:14:00;;;;;;;4.90;1.40;;;;;;;;;;5076459;28;20272;-77
2023/12/20 04:16:31;;;;;;;3.53;1.27;;;;;;;;;;5046327;28;20608;-76
2023/12/20 04:18:57;;;;;;;3.93;1.27;;;;;;;;;;5057764;28;20211;-77
2023/12/20 04:21:24;;;;;;;7.10;2.00;;;;;;;;;;5054482;28;20222;-75
2023/12/20 04:23:50;;;;;;;6.13;1.10;;;;;;;;;;5071271;28;20183;-77
2023/12/20 04:26:16;;;;;;;4.60;1.30;;;;;;;;;;5053145;28;20177;-76
2023/12/20 04:28:42;;;;;;;3.33;1.47;;;;;;;;;;5055879;28;20213;-75
2023/12/20 04:31:08;;;;;;;5.23;1.37;;;;;;;;;;5077950;28;20219;-77
2023/12/20 04:33:34;;;;;;;7.30;1.17;;;;;;;;;;5056712;28;20211;-76
2023/12/20 04:36:00;;;;;;;3.33;1.20;;;;;;;;;;5068858;28;20606;-74
2023/12/20 04:38:26;;;;;;;3.70;1.50;;;;;;;;;;5078585;28;20171;-76
2023/12/20 04:40:52;;;;;;;6.50;1.57;;;;;;;;;;5078854;28;20418;-76
2023/12/20 04:43:20;;;;;;;4.97;1.37;;;;;;;;;;5081350;28;20208;-75
2023/12/20 04:45:46;;;;;;;4.67;1.17;;;;;;;;;;5084167;28;20218;-76
2023/12/20 04:48:16;;;;;;;5.30;1.00;;;;;;;;;;5053944;28;20242;-75
2023/12/20 04:53:30;;;;;;;3.10;1.30;;;;;;;;;;5078088;28;20216;-77
2023/12/20 04:55:56;;;;;;;4.00;1.03;;;;;;;;;;5061164;28;20207;-75
2023/12/20 04:58:22;;;;;;;3.10;0.97;;;;;;;;;;5078544;28;20210;-76
2023/12/20 05:00:49;;;;;;;4.45;1.25;;;;;;;;;;5076181;28;20481;-75
2023/12/20 05:03:50;;;;;;;2.57;1.37;;;;;;;;;;5072739;28;20236;-76
2023/12/20 05:06:17;;;;;;;3.37;1.67;;;;;;;;;;5072948;28;20198;-75
2023/12/20 05:08:47;;;;;;;4.37;1.47;;;;;;;;;;5076398;28;20274;-76
2023/12/20 05:11:36;;;;;;;4.50;1.60;;;;;;;;;;5077697;28;20218;-75
2023/12/20 05:14:02;;;;;;;4.67;1.40;;;;;;;;;;5052442;28;20206;-75
2023/12/20 05:16:29;;;;;;;3.93;1.30;;;;;;;;;;5034912;28;20268;-75
2023/12/20 05:19:07;;;;;;;2.93;1.30;;;;;;;;;;5037443;28;20717;-76
2023/12/20 05:21:33;;;;;;;3.60;1.37;;;;;;;;;;5069798;28;20221;-75
2023/12/20 05:24:00;;;;;;;2.77;1.07;;;;;;;;;;5056620;28;20178;-76
2023/12/20 05:26:26;;;;;;;8.33;1.33;;;;;;;;;;5074108;28;20195;-73
2023/12/20 05:28:52;;;;;;;4.63;1.43;;;;;;;;;;5077986;28;20209;-75
2023/12/20 05:31:18;;;;;;;3.37;1.10;;;;;;;;;;5071030;28;20206;-75
2023/12/20 05:33:44;;;;;;;5.30;1.23;;;;;;;;;;5078213;28;20208;-76
2023/12/20 05:36:13;;;;;;;4.23;0.80;;;;;;;;;;5079456;28;20685;-75
2023/12/20 05:38:39;;;;;;;5.50;1.47;;;;;;;;;;5076171;28;20167;-75
2023/12/20 05:41:05;;;;;;;9.63;1.03;;;;;;;;;;5068655;28;20201;-76
2023/12/20 05:43:31;;;;;;;4.57;0.97;;;;;;;;;;5082172;28;20399;-75
2023/12/20 05:45:57;;;;;;;4.07;0.93;;;;;;;;;;5075638;28;20349;-76
2023/12/20 05:48:24;;;;;;;5.20;1.80;;;;;;;;;;5077241;28;20577;-76
2023/12/20 05:50:51;;;;;;;4.83;1.30;;;;;;;;;;5080068;28;20182;-76
2023/12/20 05:53:20;;;;;;;5.80;1.80;;;;;;;;;;5059150;28;20170;-76
2023/12/20 05:55:47;;;;;;;4.40;1.53;;;;;;;;;;5057383;28;20207;-76
2023/12/20 05:58:13;;;;;;;6.97;1.07;;;;;;;;;;5073644;28;20262;-74
2023/12/20 06:00:39;;;;;;;2.93;1.10;;;;;;;;;;5075068;28;20279;-76
2023/12/20 06:03:05;;;;;;;4.67;1.33;;;;;;;;;;5052402;28;20210;-75
2023/12/20 06:05:31;;;;;;;7.07;1.40;;;;;;;;;;5073245;28;20230;-75
2023/12/20 06:08:01;;;;;;;4.97;1.17;;;;;;;;;;5071319;28;20218;-76
2023/12/20 06:10:27;;;;;;;4.73;1.20;;;;;;;;;;5075734;28;20217;-76
2023/12/20 06:12:53;;;;;;;1.77;0.90;;;;;;;;;;5073748;28;20206;-76
2023/12/20 06:15:19;;;;;;;4.87;1.17;;;;;;;;;;5076624;28;20214;-75
2023/12/20 06:17:46;;;;;;;3.73;1.00;;;;;;;;;;5075020;28;20307;-76
2023/12/20 06:20:12;;;;;;;12.63;1.90;;;;;;;;;;5073671;28;20172;-76
2023/12/20 06:22:39;;;;;;;5.50;1.27;;;;;;;;;;5054919;28;20292;-76
2023/12/20 06:25:06;;;;;;;9.27;1.37;;;;;;;;;;5078642;28;20218;-77
2023/12/20 06:27:35;;;;;;;3.77;1.37;;;;;;;;;;5078331;28;20211;-76
2023/12/20 06:30:01;;;;;;;3.90;1.30;;;;;;;;;;5052423;28;20229;-76
2023/12/20 06:32:29;;;;;;;4.00;1.20;;;;;;;;;;5064643;28;20256;-77
2023/12/20 06:34:55;;;;;;;8.50;1.67;;;;;;;;;;5053532;28;20207;-76
2023/12/20 06:37:21;;;;;;;4.40;1.53;;;;;;;;;;5076414;28;20223;-76
2023/12/20 06:39:47;;;;;;;3.20;0.90;;;;;;;;;;5073858;28;20696;-76
2023/12/20 06:42:13;;;;;;;6.63;1.27;;;;;;;;;;5082132;28;20199;-76
2023/12/20 06:44:39;;;;;;;3.80;1.30;;;;;;;;;;5084611;28;20174;-75
2023/12/20 06:47:06;;;;;;;2.47;1.17;;;;;;;;;;5067619;28;20218;-73
2023/12/20 06:49:32;;;;;;;6.10;1.33;;;;;;;;;;5079443;28;20222;-73
2023/12/20 06:51:58;;;;;;;3.43;1.37;;;;;;;;;;5060907;28;20222;-75
2023/12/20 06:54:24;;;;;;;3.87;1.23;;;;;;;;;;5076702;28;20237;-75
2023/12/20 06:56:50;;;;;;;6.57;1.23;;;;;;;;;;5075239;28;20211;-75
2023/12/20 06:59:16;;;;;;;3.03;1.10;;;;;;;;;;5069978;28;20206;-75
2023/12/20 07:01:42;;;;;;;7.03;1.50;;;;;;;;;;5066284;28;20227;-75
2023/12/20 07:04:09;;;;;;;5.37;1.63;;;;;;;;;;5074747;28;20211;-75
2023/12/20 07:06:35;;;;;;;10.93;1.83;;;;;;;;;;5063463;28;20708;-75
2023/12/20 07:09:01;;;;;;;7.63;1.57;;;;;;;;;;5071585;28;20221;-75
2023/12/20 07:11:27;;;;;;;6.93;1.30;;;;;;;;;;5077597;28;20668;-76
2023/12/20 07:13:53;;;;;;;3.47;1.17;;;;;;;;;;5053704;28;20226;-75
2023/12/20 07:16:19;;;;;;;6.03;1.03;;;;;;;;;;5068886;28;20259;-75
2023/12/20 07:18:45;;;;;;;8.17;1.40;;;;;;;;;;5060505;28;20214;-76
2023/12/20 07:21:11;;;;;;;2.60;1.00;;;;;;;;;;5060903;28;20607;-77
2023/12/20 07:23:37;;;;;;;7.27;1.57;;;;;;;;;;5073995;28;20549;-75
2023/12/20 07:26:04;;;;;;;3.53;1.37;;;;;;;;;;5081433;28;20217;-74
2023/12/20 07:28:30;;;;;;;3.70;1.43;;;;;;;;;;5065347;28;20215;-76
2023/12/20 07:30:56;;;;;;;3.03;1.30;;;;;;;;;;5075533;28;20341;-76
2023/12/20 07:33:22;;;;;;;3.87;1.03;;;;;;;;;;5077339;28;20222;-74
2023/12/20 07:35:48;;;;;;;3.17;1.30;;;;;;;;;;5066648;28;20198;-74
2023/12/20 07:38:14;;;;;;;5.77;1.83;;;;;;;;;;5059840;28;20291;-75
2023/12/20 07:40:40;;;;;;;5.13;1.50;;;;;;;;;;5066155;28;20202;-74
2023/12/20 07:43:07;;;;;;;1.97;1.10;;;;;;;;;;5080105;28;20619;-74
2023/12/20 07:45:33;;;;;;;11.33;1.77;;;;;;;;;;5077203;28;20219;-76
2023/12/20 07:47:59;;;;;;;3.60;1.50;;;;;;;;;;5063821;28;20202;-77
2023/12/20 07:50:26;;;;;;;5.50;1.70;;;;;;;;;;5077221;28;20175;-75
2023/12/20 07:52:53;;;;;;;6.43;1.50;;;;;;;;;;5074660;28;20810;-76
2023/12/20 07:55:19;;;;;;;3.87;0.93;;;;;;;;;;5077313;28;20233;-76
2023/12/20 07:57:45;;;;;;;5.23;1.30;;;;;;;;;;5056364;28;20219;-75
2023/12/20 08:00:11;;;;;;;3.07;0.93;;;;;;;;;;5067347;28;20246;-74
2023/12/20 08:02:38;;;;;;;8.97;1.87;;;;;;;;;;5075449;28;20320;-76
2023/12/20 08:05:04;;;;;;;5.83;1.60;;;;;;;;;;5057648;28;20601;-74
2023/12/20 08:07:30;;;;;;;4.10;1.27;;;;;;;;;;5055966;28;20706;-77
2023/12/20 08:09:56;;;;;;;3.27;0.83;;;;;;;;;;5074633;28;20232;-76
2023/12/20 08:12:23;;;;;;;5.50;1.47;;;;;;;;;;5056055;28;20242;-77
2023/12/20 08:14:49;;;;;;;5.27;1.63;;;;;;;;;;5079749;28;20238;-75
2023/12/20 08:17:16;;;;;;;10.73;2.20;;;;;;;;;;5080293;28;20198;-76
2023/12/20 08:19:42;;;;;;;1.50;0.87;;;;;;;;;;5068910;28;20303;-76
2023/12/20 08:22:09;;;;;;;4.53;1.67;;;;;;;;;;5071711;28;20312;-76
2023/12/20 08:24:35;;;;;;;8.90;1.47;;;;;;;;;;5063071;28;20717;-77
2023/12/20 08:27:01;;;;;;;5.37;1.70;;;;;;;;;;5075711;28;20229;-74
2023/12/20 08:29:28;;;;;;;4.73;1.23;;;;;;;;;;5072740;28;20272;-76
2023/12/20 08:31:54;;;;;;;3.07;1.13;;;;;;;;;;5075194;28;20272;-75
2023/12/20 08:34:20;;;;;;;2.73;0.90;;;;;;;;;;5072658;28;20210;-76
2023/12/20 08:36:46;;;;;;;6.67;1.27;;;;;;;;;;5076419;28;20240;-77
2023/12/20 08:39:12;;;;;;;6.20;1.40;;;;;;;;;;5075973;28;20210;-76
2023/12/20 08:41:38;;;;;;;2.73;1.00;;;;;;;;;;5083164;28;20193;-76
2023/12/20 08:44:04;;;;;;;3.93;1.97;;;;;;;;;;5059099;28;20270;-75
2023/12/20 08:46:30;;;;;;;4.97;1.73;;;;;;;;;;5073386;28;20218;-74
2023/12/20 08:48:56;;;;;;;6.87;1.50;;;;;;;;;;5072104;28;20213;-76
2023/12/20 08:51:25;;;;;;;5.37;1.50;;;;;;;;;;5071756;28;20284;-76
2023/12/20 08:53:51;;;;;;;4.17;1.10;;;;;;;;;;5073885;28;20270;-75
2023/12/20 08:56:17;;;;;;;12.60;2.20;;;;;;;;;;5073223;28;20551;-76
2023/12/20 08:58:44;;;;;;;7.47;1.43;;;;;;;;;;5051913;28;20246;-77
2023/12/20 09:01:10;;;;;;;5.07;1.37;;;;;;;;;;5078104;28;20212;-78
2023/12/20 09:03:36;;;;;;;5.30;1.47;;;;;;;;;;5079227;28;20289;-76
2023/12/20 09:06:02;;;;;;;2.87;0.90;;;;;;;;;;5075213;28;20238;-76
2023/12/20 09:08:28;;;;;;;4.97;1.63;;;;;;;;;;5079131;28;20233;-75
2023/12/20 09:10:54;;;;;;;5.27;1.70;;;;;;;;;;5073466;28;20199;-76
2023/12/20 09:13:20;;;;;;;8.00;1.50;;;;;;;;;;5078922;28;20718;-76
2023/12/20 09:15:46;;;;;;;10.70;1.83;;;;;;;;;;5077463;28;20211;-77
2023/12/20 09:18:12;;;;;;;7.27;1.37;;;;;;;;;;5079659;28;20206;-75
2023/12/20 09:20:38;;;;;;;3.93;1.70;;;;;;;;;;5076343;28;20214;-77
2023/12/20 09:23:04;;;;;;;4.50;1.50;;;;;;;;;;5074373;28;20268;-75
2023/12/20 09:25:30;;;;;;;2.07;0.90;;;;;;;;;;5076097;28;20222;-78
2023/12/20 09:27:56;;;;;;;5.23;1.13;;;;;;;;;;5056266;28;20247;-76
2023/12/20 09:30:22;;;;;;;4.90;1.27;;;;;;;;;;5080762;28;20435;-74
2023/12/20 09:32:48;;;;;;;4.70;1.53;;;;;;;;;;5076371;28;20237;-76
2023/12/20 09:35:14;;;;;;;6.60;1.73;;;;;;;;;;5071948;28;20175;-76
2023/12/20 09:37:44;;;;;;;4.40;1.40;;;;;;;;;;5076629;28;20211;-76
2023/12/20 09:40:12;;;;;;;5.53;1.37;;;;;;;;;;5073910;28;20270;-76
2023/12/20 09:42:47;;;;;;;7.60;1.13;;;;;;;;;;5074768;28;20253;-75
2023/12/20 09:45:16;;;;;;;5.27;1.37;;;;;;;;;;5073296;28;20301;-75
2023/12/20 09:47:43;;;;;;;3.43;0.97;;;;;;;;;;5075039;28;20240;-76
2023/12/20 09:50:12;;;;;;;8.13;1.10;;;;;;;;;;5067282;28;20215;-73
2023/12/20 09:52:39;;;;;;;4.27;1.00;;;;;;;;;;5058031;28;20241;-75
2023/12/20 09:55:05;;;;;;;3.37;1.17;;;;;;;;;;5054993;28;20285;-74
2023/12/20 09:57:32;;;;;;;4.67;1.53;;;;;;;;;;5070677;28;20213;-75
2023/12/20 09:59:58;;;;;;;4.73;2.00;;;;;;;;;;5056405;28;20214;-74
2023/12/20 10:02:27;;;;;;;6.07;1.93;;;;;;;;;;5076825;28;20177;-75
2023/12/20 10:04:53;;;;;;;9.17;1.60;;;;;;;;;;5078988;28;20336;-75
2023/12/20 10:07:19;;;;;;;9.67;2.07;;;;;;;;;;5078440;28;20283;-75
2023/12/20 10:09:46;;;;;;;6.50;1.40;;;;;;;;;;5059951;28;20202;-75
2023/12/20 10:12:12;;;;;;;4.50;1.13;;;;;;;;;;5066900;28;20214;-75
2023/12/20 10:14:39;;;;;;;10.37;1.90;;;;;;;;;;5076418;28;20216;-78
2023/12/20 10:17:06;;;;;;;5.67;1.30;;;;;;;;;;5082074;28;20240;-78
2023/12/20 10:19:32;;;;;;;5.83;1.43;;;;;;;;;;5074130;28;20233;-78
2023/12/20 10:22:00;;;;;;;4.23;1.70;;;;;;;;;;5080767;28;20217;-78
2023/12/20 10:24:26;;;;;;;4.40;1.10;;;;;;;;;;5075756;28;20214;-79
2023/12/20 10:27:03;;;;;;;5.77;1.63;;;;;;;;;;5079585;28;20611;-78
2023/12/20 10:29:31;;;;;;;5.87;1.60;;;;;;;;;;5080767;28;20179;-80
2023/12/20 10:31:57;;;;;;;6.50;1.87;;;;;;;;;;5060985;28;20218;-76
2023/12/20 10:34:24;;;;;;;8.03;1.63;;;;;;;;;;5076538;28;20203;-78
2023/12/20 10:36:50;;;;;;;4.83;1.20;;;;;;;;;;5085051;28;20214;-79
2023/12/20 10:39:20;;;;;;;2.13;1.10;;;;;;;;;;5082524;28;20225;-78
2023/12/20 10:41:46;;;;;;;2.70;1.13;;;;;;;;;;5084530;28;20209;-77
2023/12/20 10:44:13;;;;;;;6.43;1.17;;;;;;;;;;5085372;28;20173;-78
2023/12/20 10:46:40;;;;;;;5.50;1.33;;;;;;;;;;5084027;28;20199;-78
2023/12/20 10:49:07;;;;;;;3.17;1.30;;;;;;;;;;5081098;28;20203;-77
2023/12/20 10:51:34;;;;;;;3.83;1.33;;;;;;;;;;5059247;28;20226;-77
2023/12/20 10:54:01;;;;;;;6.57;1.73;;;;;;;;;;5079852;28;20254;-74
2023/12/20 10:56:31;;;;;;;3.70;1.50;;;;;;;;;;5064269;28;20412;-79
2023/12/20 10:58:58;;;;;;;3.90;1.50;;;;;;;;;;5080916;28;20260;-77
2023/12/20 11:01:25;;;;;;;5.37;1.83;;;;;;;;;;5085640;28;20769;-76
2023/12/20 11:03:52;;;;;;;8.30;1.33;;;;;;;;;;5075585;28;20264;-76
2023/12/20 11:06:43;;;;;;;8.57;1.70;;;;;;;;;;5078650;28;20214;-79
2023/12/20 11:09:21;;;;;;;4.73;1.50;;;;;;;;;;5080125;28;20385;-78
2023/12/20 11:11:56;;;;;;;4.57;1.50;;;;;;;;;;5078972;28;20248;-76
2023/12/20 11:14:46;;;;;;;6.23;2.07;;;;;;;;;;5073668;28;20197;-75
2023/12/20 11:17:14;;;;;;;6.07;1.57;;;;;;;;;;5068881;28;20210;-75
2023/12/20 11:19:59;;;;;;;10.13;2.00;;;;;;;;;;5065677;28;20230;-76
2023/12/20 11:22:26;;;;;;;5.70;2.00;;;;;;;;;;5080752;28;20225;-75
2023/12/20 11:24:52;;;;;;;4.43;1.60;;;;;;;;;;5079195;28;20210;-75
2023/12/20 11:27:19;;;;;;;6.60;2.67;;;;;;;;;;5083158;28;20214;-75
2023/12/20 11:29:52;;;;;;;7.50;1.77;;;;;;;;;;5077803;28;20182;-76
2023/12/20 11:32:27;;;;;;;5.07;1.90;;;;;;;;;;5079983;28;20203;-74
2023/12/20 11:34:58;;;;;;;8.53;2.50;;;;;;;;;;5082493;28;20241;-76
2023/12/20 11:37:30;;;;;;;6.03;1.53;;;;;;;;;;5063060;28;20215;-78
2023/12/20 11:39:56;;;;;;;9.20;2.63;;;;;;;;;;5067118;28;20203;-75
2023/12/20 11:42:23;;;;;;;10.93;2.30;;;;;;;;;;5078762;28;20226;-75
2023/12/20 11:44:50;;;;;;;5.03;1.40;;;;;;;;;;5072578;28;20170;-74
2023/12/20 11:47:19;;;;;;;3.90;1.57;;;;;;;;;;5080248;28;20268;-74
2023/12/20 11:49:45;;;;;;;4.00;1.33;;;;;;;;;;5079538;28;20284;-76
2023/12/20 11:52:13;;;;;;;6.63;1.50;;;;;;;;;;5073483;28;20316;-75
2023/12/20 11:54:39;;;;;;;6.37;1.70;;;;;;;;;;5078238;28;20203;-75
2023/12/20 11:57:05;;;;;;;2.80;1.30;;;;;;;;;;5079060;28;20211;-73
2023/12/20 11:59:31;;;;;;;7.30;1.43;;;;;;;;;;5075701;28;20218;-73
2023/12/20 12:02:00;;;;;;;3.90;1.70;;;;;;;;;;5076087;28;20198;-75
2023/12/20 12:04:27;;;;;;;8.17;2.07;;;;;;;;;;5063519;28;20550;-76
2023/12/20 12:06:54;;;;;;;5.07;1.50;;;;;;;;;;5064532;28;20207;-75
2023/12/20 12:09:20;;;;;;;4.00;1.20;;;;;;;;;;5076138;28;20657;-75
2023/12/20 12:11:46;;;;;;;3.57;1.50;;;;;;;;;;5076928;28;20202;-75
2023/12/20 12:14:12;;;;;;;2.87;1.40;;;;;;;;;;5072005;28;20190;-74
2023/12/20 12:16:38;;;;;;;4.20;1.10;;;;;;;;;;5074171;28;20205;-75
2023/12/20 12:19:04;;;;;;;8.60;1.70;;;;;;;;;;5080743;28;20209;-74
2023/12/20 12:21:30;;;;;;;5.63;1.57;;;;;;;;;;5062665;28;20273;-75
2023/12/20 12:24:07;;;;;;;3.67;1.60;;;;;;;;;;5077917;28;20244;-74
2023/12/20 12:26:33;;;;;;;4.10;1.47;;;;;;;;;;5072261;28;20187;-75
2023/12/20 12:28:59;;;;;;;4.37;1.57;;;;;;;;;;5064026;28;20314;-74
2023/12/20 12:31:26;;;;;;;3.80;1.30;;;;;;;;;;5082677;28;20274;-74
2023/12/20 12:33:52;;;;;;;6.47;1.53;;;;;;;;;;5079352;28;20210;-74
2023/12/20 12:36:18;;;;;;;6.20;1.53;;;;;;;;;;5078209;28;20266;-73
2023/12/20 12:38:44;;;;;;;5.10;1.17;;;;;;;;;;5078709;28;20181;-75
2023/12/20 12:41:13;;;;;;;3.43;1.50;;;;;;;;;;5079824;28;20179;-74
2023/12/20 12:43:39;;;;;;;5.20;1.30;;;;;;;;;;5070027;28;20290;-75
2023/12/20 12:46:05;;;;;;;4.43;2.07;;;;;;;;;;5079864;28;20207;-74
2023/12/20 12:48:31;;;;;;;7.20;1.87;;;;;;;;;;5077432;28;20228;-74
2023/12/20 12:50:59;;;;;;;5.83;1.80;;;;;;;;;;5076032;28;20193;-75
2023/12/20 12:53:26;;;;;;;3.87;1.33;;;;;;;;;;5067613;28;20183;-75
2023/12/20 12:55:52;;;;;;;5.30;1.63;;;;;;;;;;5061867;28;20198;-74
2023/12/20 12:58:19;;;;;;;6.23;1.80;;;;;;;;;;5070566;28;20210;-74
2023/12/20 13:00:45;;;;;;;2.10;1.40;;;;;;;;;;5080867;28;20759;-75
2023/12/20 13:03:11;;;;;;;5.10;1.63;;;;;;;;;;5082608;28;20264;-74
2023/12/20 13:05:37;;;;;;;5.17;1.50;;;;;;;;;;5076924;28;20168;-76
2023/12/20 13:08:03;;;;;;;3.20;1.73;;;;;;;;;;5059648;28;20256;-75
2023/12/20 13:10:29;;;;;;;9.80;2.00;;;;;;;;;;5084297;28;20202;-75
2023/12/20 13:12:55;;;;;;;8.93;2.10;;;;;;;;;;5077482;28;20246;-76
2023/12/20 13:15:21;;;;;;;6.17;1.87;;;;;;;;;;5074916;28;20233;-75
2023/12/20 13:17:48;;;;;;;11.90;4.60;;;;;;;;;;5083287;28;20195;-75
2023/12/20 13:20:14;;;;;;;4.53;1.80;;;;;;;;;;5062492;28;20239;-76
2023/12/20 13:22:40;;;;;;;7.87;2.40;;;;;;;;;;5061562;28;20203;-75
2023/12/20 13:25:06;;;;;;;3.53;1.27;;;;;;;;;;5059569;28;20225;-76
2023/12/20 13:27:32;;;;;;;2.10;0.90;;;;;;;;;;5091589;28;20203;-76
2023/12/20 13:29:59;;;;;;;1.63;1.10;;;;;;;;;;5094732;28;20163;-77
2023/12/20 13:32:25;;;;;;;1.13;0.40;;;;;;;;;;5079358;28;20233;-76
2023/12/20 13:34:51;;;;;;;4.40;0.87;;;;;;;;;;5079368;28;20198;-75
2023/12/20 13:37:17;;;;;;;5.40;1.00;;;;;;;;;;5077060;28;20199;-76
2023/12/20 13:39:43;;;;;;;0.57;0.40;;;;;;;;;;5056956;28;20203;-76
2023/12/20 13:42:09;;;;;;;1.07;0.80;;;;;;;;;;5078594;28;21310;-75
2023/12/20 13:44:35;;;;;;;2.30;0.70;;;;;;;;;;5079630;28;20183;-75
2023/12/20 13:47:02;;;;;;;1.43;0.33;;;;;;;;;;5058946;28;20576;-76
2023/12/20 13:49:28;;;;;;;1.10;0.50;;;;;;;;;;5072117;28;20211;-76
2023/12/20 13:51:55;;;;;;;1.73;0.60;;;;;;;;;;5082379;28;20202;-76
2023/12/20 13:54:22;;;;;;;3.03;0.80;;;;;;;;;;5053982;28;20207;-76
2023/12/20 13:56:48;;;;;;;1.13;0.43;;;;;;;;;;5078467;28;20206;-75
2023/12/20 13:59:15;;;;;;;0.77;0.40;;;;;;;;;;5081647;28;20171;-76
2023/12/20 14:01:41;;;;;;;1.17;0.67;;;;;;;;;;5071123;28;20231;-75
2023/12/20 14:04:07;;;;;;;1.00;0.50;;;;;;;;;;5075588;28;20237;-75
2023/12/20 14:06:33;;;;;;;2.87;0.90;;;;;;;;;;5079336;28;20301;-75
2023/12/20 14:09:00;;;;;;;0.63;0.57;;;;;;;;;;5074120;28;20273;-76
2023/12/20 14:11:26;;;;;;;1.00;0.60;;;;;;;;;;5060822;28;20226;-75
2023/12/20 14:13:52;;;;;;;1.03;0.40;;;;;;;;;;5077893;28;20217;-75
2023/12/20 14:16:18;;;;;;;2.17;0.63;;;;;;;;;;5080554;28;20198;-76
2023/12/20 14:18:44;;;;;;;2.43;0.67;;;;;;;;;;5052229;28;20206;-76
2023/12/20 14:21:10;;;;;;;0.60;0.40;;;;;;;;;;5070389;28;20205;-75
2023/12/20 14:23:36;;;;;;;0.80;0.33;;;;;;;;;;5080747;28;20171;-77
2023/12/20 14:26:03;;;;;;;0.50;0.50;;;;;;;;;;5078364;28;20213;-76
2023/12/20 14:28:29;;;;;;;0.63;0.37;;;;;;;;;;5058512;28;20260;-78
2023/12/20 14:30:56;;;;;;;0.40;0.30;;;;;;;;;;5079148;28;20195;-77
2023/12/20 14:33:22;;;;;;;0.40;0.20;;;;;;;;;;5075081;28;20714;-76
2023/12/20 14:35:48;;;;;;;2.00;0.30;;;;;;;;;;5072229;28;20174;-76
2023/12/20 14:38:15;;;;;;;2.07;0.57;;;;;;;;;;5077018;28;20194;-76
2023/12/20 14:40:41;;;;;;;0.23;0.23;;;;;;;;;;5076241;28;20424;-75
2023/12/20 14:43:07;;;;;;;1.20;0.70;;;;;;;;;;5060098;28;20199;-75